Time;durP1;ratioP1;P1;durP2;ratioP2;P2;SDS_P1;SDS_P2;PMS_P1;PMS_P2;Temp;Humidity;BMP_temperature;BMP_pressure;BME280_temperature;BME280_humidity;BME280_pressure;Samples;Min_cycle;Max_cycle;Signal;HPM_P1;HPM_P2
2023/03/25 00:01:12;;;;;;;11.45;2.70;;;;;;;8.61;88.34;100114.13;5022023;28;20412;-57
2023/03/25 00:03:37;;;;;;;10.73;2.50;;;;;;;8.69;87.18;100111.47;5029477;28;20064;-58
2023/03/25 00:06:05;;;;;;;9.38;2.42;;;;;;;8.70;87.13;100104.38;5020986;28;20042;-59
2023/03/25 00:08:31;;;;;;;9.02;2.47;;;;;;;8.73;86.64;100106.66;5026622;28;20026;-58
2023/03/25 00:10:58;;;;;;;10.95;2.75;;;;;;;8.65;86.93;100104.88;5021611;28;20083;-58
2023/03/25 00:13:24;;;;;;;9.93;2.80;;;;;;;8.63;87.09;100122.69;5021486;28;20037;-58
2023/03/25 00:15:52;;;;;;;7.80;2.30;;;;;;;8.64;87.41;100108.53;5022724;28;20128;-58
2023/03/25 00:18:21;;;;;;;12.98;2.58;;;;;;;8.61;87.13;100125.53;5032020;28;20064;-58
2023/03/25 00:20:50;;;;;;;9.65;2.60;;;;;;;8.58;87.14;100115.28;5030265;28;20040;-58
2023/03/25 00:23:18;;;;;;;12.35;2.70;;;;;;;8.67;85.83;100112.63;5017754;28;20493;-58
2023/03/25 00:25:43;;;;;;;11.13;2.30;;;;;;;8.63;86.31;100096.28;5028783;28;20021;-58
2023/03/25 00:28:10;;;;;;;9.27;2.38;;;;;;;8.55;86.61;100098.94;5025502;28;20420;-58
2023/03/25 00:30:37;;;;;;;9.13;2.40;;;;;;;8.59;85.71;100094.97;5031687;28;20475;-59
2023/03/25 00:33:02;;;;;;;11.98;2.90;;;;;;;8.56;86.01;100100.56;5029438;28;20113;-58
2023/03/25 00:35:28;;;;;;;12.25;2.88;;;;;;;8.58;85.91;100095.94;5022958;28;20108;-58
2023/03/25 00:37:58;;;;;;;12.20;2.75;;;;;;;8.61;85.44;100098.25;5032448;28;20029;-58
2023/03/25 00:40:27;;;;;;;11.60;2.50;;;;;;;8.74;84.08;100105.69;5030458;28;20038;-58
2023/03/25 00:42:53;;;;;;;9.80;2.28;;;;;;;8.55;85.18;100098.94;5031654;28;20063;-58
2023/03/25 00:45:19;;;;;;;10.52;2.60;;;;;;;8.60;84.94;100086.06;5022299;28;20030;-58
2023/03/25 00:47:44;;;;;;;8.73;2.40;;;;;;;8.64;84.19;100097.94;5032737;28;20033;-58
2023/03/25 00:50:10;;;;;;;9.57;2.22;;;;;;;8.60;84.79;100107.19;5025985;28;20124;-58
2023/03/25 00:52:35;;;;;;;10.43;2.50;;;;;;;8.69;83.50;100103.53;5024450;28;20048;-59
2023/03/25 00:55:01;;;;;;;8.52;2.50;;;;;;;8.73;83.07;100096.09;5029198;28;20033;-58
2023/03/25 00:57:27;;;;;;;9.95;2.50;;;;;;;8.58;84.29;100098.59;5023630;28;20021;-58
2023/03/25 00:59:52;;;;;;;11.30;2.50;;;;;;;8.56;85.10;100090.00;5022101;28;20125;-58
2023/03/25 01:02:20;;;;;;;8.48;2.30;;;;;;;8.62;84.08;100089.34;5029788;28;20068;-57
2023/03/25 01:04:48;;;;;;;7.57;2.63;;;;;;;8.50;85.09;100093.28;5027447;28;20025;-58
2023/03/25 01:07:19;;;;;;;9.40;2.60;;;;;;;8.51;85.32;100087.00;5031098;28;20088;-59
2023/03/25 01:09:46;;;;;;;10.02;2.30;;;;;;;8.45;85.44;100094.59;5027806;28;20057;-59
2023/03/25 01:12:17;;;;;;;6.40;2.40;;;;;;;8.42;85.48;100102.88;5018953;28;20048;-58
2023/03/25 01:14:43;;;;;;;7.93;2.60;;;;;;;8.47;84.59;100082.06;5019105;28;20524;-58
2023/03/25 01:17:08;;;;;;;6.40;2.47;;;;;;;8.38;85.77;100088.34;5024614;28;20045;-59
2023/03/25 01:19:34;;;;;;;10.00;2.30;;;;;;;8.43;85.39;100096.59;5029380;28;20038;-58
2023/03/25 01:21:59;;;;;;;7.47;2.40;;;;;;;8.37;86.12;100091.13;5033294;28;20049;-58
2023/03/25 01:24:25;;;;;;;8.60;2.75;;;;;;;8.54;84.71;100097.28;5028613;28;20035;-59
2023/03/25 01:26:50;;;;;;;8.82;2.75;;;;;;;8.38;85.99;100093.63;5025488;28;20026;-58
2023/03/25 01:29:18;;;;;;;8.38;2.60;;;;;;;8.45;85.54;100089.31;5026100;28;20026;-58
2023/03/25 01:31:43;;;;;;;7.10;2.60;;;;;;;8.36;86.59;100100.91;5025690;28;20029;-59
2023/03/25 01:34:09;;;;;;;8.00;2.47;;;;;;;8.29;86.78;100099.91;5025517;28;20029;-58
2023/03/25 01:36:36;;;;;;;7.07;2.33;;;;;;;8.27;87.71;100107.16;5021817;28;20453;-59
2023/03/25 01:39:04;;;;;;;8.15;2.40;;;;;;;8.23;87.48;100100.56;5019946;28;20021;-59
2023/03/25 01:41:30;;;;;;;7.35;2.30;;;;;;;8.26;87.51;100108.16;5028716;28;20029;-59
2023/03/25 01:44:18;;;;;;;8.23;2.40;;;;;;;8.26;87.90;100105.50;5031854;28;20025;-58
2023/03/25 01:46:45;;;;;;;7.47;2.40;;;;;;;8.31;86.82;100101.41;5026345;28;20041;-59
2023/03/25 01:49:20;;;;;;;8.55;2.75;;;;;;;8.28;87.29;100099.06;5038587;28;20124;-57
2023/03/25 01:51:49;;;;;;;8.30;2.72;;;;;;;8.19;88.29;100090.31;5020252;28;20117;-58
2023/03/25 01:54:16;;;;;;;8.35;2.58;;;;;;;8.14;88.49;100087.34;5032566;28;20037;-57
2023/03/25 01:56:45;;;;;;;7.63;2.35;;;;;;;8.24;87.30;100081.06;5026603;28;20044;-58
2023/03/25 01:59:12;;;;;;;6.38;2.30;;;;;;;8.11;88.41;100092.97;5023619;28;20730;-59
2023/03/25 02:01:37;;;;;;;6.55;2.28;;;;;;;8.09;88.19;100089.63;5017874;28;20030;-60
2023/03/25 02:04:08;;;;;;;7.68;2.10;;;;;;;8.12;87.58;100091.13;5026254;28;20025;-58
2023/03/25 02:06:45;;;;;;;6.50;2.15;;;;;;;8.15;87.64;100091.63;5031434;28;20018;-58
2023/03/25 02:09:13;;;;;;;7.00;2.30;;;;;;;8.14;87.59;100087.34;5024351;28;20057;-59
2023/03/25 02:11:39;;;;;;;6.38;2.47;;;;;;;8.13;88.20;100083.03;5027299;28;20040;-58
2023/03/25 02:14:13;;;;;;;8.93;2.50;;;;;;;8.16;89.04;100080.09;5026746;28;20025;-58
2023/03/25 02:16:50;;;;;;;8.95;2.53;;;;;;;8.08;89.52;100083.53;5030564;28;20137;-58
2023/03/25 02:19:55;;;;;;;7.03;2.35;;;;;;;8.10;90.21;100086.03;5020085;28;20092;-58
2023/03/25 02:22:58;;;;;;;8.27;2.40;;;;;;;8.17;89.71;100079.09;5024587;28;20080;-58
2023/03/25 02:25:23;;;;;;;8.30;2.53;;;;;;;8.05;89.47;100067.22;5021560;28;20108;-59
2023/03/25 02:28:13;;;;;;;7.85;2.35;;;;;;;8.32;88.96;100081.06;5030092;28;20159;-58
2023/03/25 02:30:47;;;;;;;7.55;2.60;;;;;;;8.03;89.40;100080.56;5014782;28;20030;-58
2023/03/25 02:33:33;;;;;;;8.00;2.40;;;;;;;8.04;90.36;100086.69;5017652;28;20108;-58
2023/03/25 02:36:23;;;;;;;8.10;2.42;;;;;;;8.00;90.25;100077.44;5023259;28;20041;-58
2023/03/25 02:38:54;;;;;;;6.25;2.30;;;;;;;8.04;89.42;100076.13;5023287;28;20103;-58
2023/03/25 02:41:35;;;;;;;10.27;2.50;;;;;;;8.11;89.58;100066.56;5020665;28;20045;-57
2023/03/25 02:44:16;;;;;;;6.63;2.30;;;;;;;8.04;89.52;100069.00;5028596;28;20033;-58
2023/03/25 02:46:52;;;;;;;7.63;2.25;;;;;;;8.04;89.69;100076.13;5027401;28;20481;-58
2023/03/25 02:49:28;;;;;;;7.68;2.70;;;;;;;7.99;90.62;100078.44;5027878;28;20137;-58
2023/03/25 02:52:00;;;;;;;8.45;2.40;;;;;;;7.98;90.83;100076.78;5028694;28;20043;-59
2023/03/25 02:54:32;;;;;;;6.40;2.30;;;;;;;7.96;92.17;100065.53;5018248;28;20489;-58
2023/03/25 02:56:58;;;;;;;9.02;2.60;;;;;;;7.91;92.74;100066.84;5030335;28;20048;-58
2023/03/25 02:59:28;;;;;;;7.93;2.80;;;;;;;7.87;93.57;100073.44;5027618;28;20059;-58
2023/03/25 03:01:59;;;;;;;7.65;2.55;;;;;;;7.86;94.01;100065.69;5019447;28;20025;-58
2023/03/25 03:04:27;;;;;;;8.27;2.40;;;;;;;7.87;93.96;100069.97;5023847;28;20040;-59
2023/03/25 03:06:55;;;;;;;9.63;2.53;;;;;;;7.84;94.12;100065.84;5021011;28;20034;-57
2023/03/25 03:09:45;;;;;;;9.77;2.60;;;;;;;7.88;94.81;100069.81;5029524;28;20029;-59
2023/03/25 03:12:29;;;;;;;8.88;2.70;;;;;;;7.75;96.08;100066.84;5020020;28;20062;-58
2023/03/25 03:15:23;;;;;;;14.00;3.10;;;;;;;8.01;95.38;100066.72;5023732;28;20029;-58
2023/03/25 03:18:08;;;;;;;10.48;3.20;;;;;;;7.89;95.00;100062.75;5019368;28;20025;-58
2023/03/25 03:20:42;;;;;;;10.55;2.88;;;;;;;7.79;96.29;100047.03;5019965;28;20038;-58
2023/03/25 03:23:27;;;;;;;12.95;3.28;;;;;;;7.71;97.51;100049.66;5027885;28;20402;-58
2023/03/25 03:25:59;;;;;;;12.60;3.10;;;;;;;7.65;97.15;100057.22;5029610;28;20033;-58
2023/03/25 03:28:36;;;;;;;10.85;2.92;;;;;;;7.66;96.79;100058.88;5023833;28;20401;-58
2023/03/25 03:31:09;;;;;;;12.32;2.95;;;;;;;7.69;96.39;100059.56;5027315;28;20033;-58
2023/03/25 03:33:49;;;;;;;10.75;3.30;;;;;;;7.73;95.95;100067.00;5028860;28;20036;-58
2023/03/25 03:36:21;;;;;;;12.55;2.75;;;;;;;7.79;95.29;100054.94;5024831;28;20113;-58
2023/03/25 03:38:51;;;;;;;13.45;2.80;;;;;;;7.81;95.21;100060.91;5027950;28;20040;-58
2023/03/25 03:41:20;;;;;;;9.80;2.78;;;;;;;7.75;94.97;100058.91;5026517;28;20029;-58
2023/03/25 03:44:01;;;;;;;13.63;3.08;;;;;;;7.73;95.11;100058.22;5023186;28;20030;-58
2023/03/25 03:46:36;;;;;;;15.50;3.15;;;;;;;7.72;95.34;100051.31;5025720;28;20026;-59
2023/03/25 03:49:08;;;;;;;10.82;2.83;;;;;;;7.78;95.06;100055.94;5028670;28;20064;-58
2023/03/25 03:51:38;;;;;;;13.83;2.93;;;;;;;7.80;94.51;100048.69;5020963;28;20030;-58
2023/03/25 03:54:09;;;;;;;9.40;2.45;;;;;;;7.63;95.56;100040.75;5020352;28;20092;-58
2023/03/25 03:56:45;;;;;;;11.75;2.80;;;;;;;7.70;95.27;100054.09;5019488;28;20473;-59
2023/03/25 03:59:19;;;;;;;13.15;3.05;;;;;;;7.64;95.74;100047.66;5016448;28;20092;-58
2023/03/25 04:01:52;;;;;;;11.82;2.53;;;;;;;7.60;95.91;100054.25;5029479;28;20448;-58
2023/03/25 04:04:21;;;;;;;14.65;3.28;;;;;;;7.61;96.10;100055.91;5022221;28;20065;-58
2023/03/25 04:07:00;;;;;;;10.45;2.70;;;;;;;7.66;95.21;100064.16;5029869;28;20032;-58
2023/03/25 04:09:45;;;;;;;12.80;2.72;;;;;;;7.72;94.92;100059.22;5028080;28;20050;-57
2023/03/25 04:12:17;;;;;;;8.45;2.60;;;;;;;7.64;95.32;100060.88;5018519;28;20091;-58
2023/03/25 04:14:43;;;;;;;9.10;2.40;;;;;;;7.64;94.46;100055.59;5025704;28;20037;-58
2023/03/25 04:17:09;;;;;;;11.02;2.92;;;;;;;7.70;94.10;100058.56;5033752;28;20033;-58
2023/03/25 04:19:34;;;;;;;11.02;2.50;;;;;;;7.71;94.36;100054.94;5025230;28;20061;-58
2023/03/25 04:22:01;;;;;;;13.90;3.00;;;;;;;7.64;94.56;100060.88;5020955;28;20025;-58
2023/03/25 04:24:30;;;;;;;9.30;2.60;;;;;;;7.63;94.88;100061.84;5016485;28;20034;-58
2023/03/25 04:26:56;;;;;;;10.38;2.45;;;;;;;7.60;94.92;100058.72;5023554;28;20037;-58
2023/03/25 04:29:23;;;;;;;7.20;2.10;;;;;;;7.65;94.89;100051.97;5029340;28;20402;-59
2023/03/25 04:31:49;;;;;;;10.63;2.55;;;;;;;7.62;94.79;100062.84;5026609;28;20029;-58
2023/03/25 04:34:14;;;;;;;9.35;2.78;;;;;;;7.63;94.45;100053.09;5014811;28;20032;-59
2023/03/25 04:36:41;;;;;;;10.90;2.53;;;;;;;7.55;95.44;100048.63;5036003;28;20083;-58
2023/03/25 04:39:08;;;;;;;9.20;2.30;;;;;;;7.58;95.19;100058.03;5027286;28;20045;-58
2023/03/25 04:41:33;;;;;;;11.57;2.60;;;;;;;7.57;94.99;100051.13;5018445;28;20076;-59
2023/03/25 04:43:58;;;;;;;8.63;2.42;;;;;;;7.57;95.34;100062.50;5020278;28;20477;-58
2023/03/25 04:46:24;;;;;;;7.50;2.40;;;;;;;7.54;96.11;100066.28;5018235;28;20048;-58
2023/03/25 04:48:52;;;;;;;8.00;2.42;;;;;;;7.58;95.56;100069.44;5016434;28;20041;-59
2023/03/25 04:51:18;;;;;;;12.35;2.78;;;;;;;7.53;96.58;100063.81;5015700;28;20032;-59
2023/03/25 04:53:43;;;;;;;7.57;2.45;;;;;;;7.57;96.49;100059.88;5018956;28;20465;-58
2023/03/25 04:56:14;;;;;;;12.25;2.60;;;;;;;7.53;97.48;100063.81;5019704;28;20025;-59
2023/03/25 04:58:41;;;;;;;11.55;2.55;;;;;;;7.51;97.08;100066.59;5019664;28;20211;-58
2023/03/25 05:01:10;;;;;;;9.35;2.63;;;;;;;7.43;98.17;100055.19;5017092;28;20068;-60
2023/03/25 05:03:38;;;;;;;10.80;2.85;;;;;;;7.43;97.94;100055.19;5020958;28;20061;-58
2023/03/25 05:06:04;;;;;;;12.50;2.70;;;;;;;7.56;96.26;100058.22;5015302;28;20485;-58
2023/03/25 05:08:31;;;;;;;10.85;2.80;;;;;;;7.48;97.26;100060.81;5025942;28;20092;-58
2023/03/25 05:10:56;;;;;;;9.55;2.63;;;;;;;7.51;96.82;100061.31;5019096;28;20025;-58
2023/03/25 05:13:22;;;;;;;7.80;2.60;;;;;;;7.52;97.31;100057.72;5023274;28;20033;-59
2023/03/25 05:15:47;;;;;;;10.43;2.72;;;;;;;7.45;97.90;100051.41;5018623;28;20034;-58
2023/03/25 05:18:14;;;;;;;11.95;2.65;;;;;;;7.40;98.96;100059.81;5034029;28;20049;-58
2023/03/25 05:20:43;;;;;;;11.93;2.65;;;;;;;7.35;99.12;100062.09;5034591;28;20420;-58
2023/03/25 05:23:16;;;;;;;9.35;2.90;;;;;;;7.44;97.38;100064.78;5032575;28;20108;-58
2023/03/25 05:25:43;;;;;;;9.80;2.58;;;;;;;7.44;97.17;100065.59;5039917;28;20029;-59
2023/03/25 05:28:12;;;;;;;8.45;2.63;;;;;;;7.57;95.02;100070.41;5038798;28;20045;-56
2023/03/25 05:30:42;;;;;;;8.07;2.70;;;;;;;7.49;96.29;100075.66;5035035;28;20428;-58
2023/03/25 05:33:09;;;;;;;8.07;2.70;;;;;;;7.52;95.96;100080.63;5027446;28;20030;-58
2023/03/25 05:35:35;;;;;;;9.82;2.40;;;;;;;7.57;95.09;100075.69;5036017;28;20112;-58
2023/03/25 05:38:00;;;;;;;8.77;2.20;;;;;;;7.50;95.24;100079.97;5027101;28;20025;-58
2023/03/25 05:40:26;;;;;;;8.13;2.30;;;;;;;7.48;95.43;100072.22;5046154;28;20552;-58
2023/03/25 05:42:53;;;;;;;11.23;2.38;;;;;;;7.55;94.76;100067.09;5031290;28;20231;-59
2023/03/25 05:45:19;;;;;;;10.95;2.60;;;;;;;7.51;94.79;100076.34;5038119;28;20029;-58
2023/03/25 05:47:44;;;;;;;7.15;2.30;;;;;;;7.55;93.76;100085.56;5028665;28;20040;-58
2023/03/25 05:50:09;;;;;;;11.32;2.78;;;;;;;7.67;92.29;100076.41;5021482;28;20049;-62
2023/03/25 05:52:35;;;;;;;12.52;2.65;;;;;;;7.71;91.73;100087.44;5025219;28;20030;-62
2023/03/25 05:55:01;;;;;;;11.52;3.10;;;;;;;7.58;93.02;100087.91;5022880;28;20513;-59
2023/03/25 05:57:26;;;;;;;8.10;2.53;;;;;;;7.64;92.37;100102.25;5029901;28;20025;-58
2023/03/25 05:59:52;;;;;;;9.05;2.20;;;;;;;7.71;91.40;100097.16;5026573;28;20056;-58
2023/03/25 06:02:17;;;;;;;8.80;2.60;;;;;;;7.61;92.79;100092.84;5026523;28;20029;-60
2023/03/25 06:04:43;;;;;;;10.38;2.90;;;;;;;7.52;92.96;100089.38;5029043;28;20358;-58
2023/03/25 06:07:13;;;;;;;10.32;2.60;;;;;;;7.67;90.83;100108.06;5029380;28;20044;-58
2023/03/25 06:09:45;;;;;;;12.43;2.75;;;;;;;7.69;91.24;100117.63;5031468;28;20020;-58
2023/03/25 06:12:15;;;;;;;12.10;2.67;;;;;;;7.58;91.70;100119.56;5023012;28;20033;-58
2023/03/25 06:14:41;;;;;;;12.43;2.88;;;;;;;7.53;92.56;100117.41;5025291;28;20037;-58
2023/03/25 06:17:09;;;;;;;12.10;2.70;;;;;;;7.52;92.25;100117.56;5037616;28;20402;-58
2023/03/25 06:19:37;;;;;;;8.20;2.47;;;;;;;7.51;92.00;100116.72;5033432;28;20036;-60
2023/03/25 06:22:05;;;;;;;13.77;3.00;;;;;;;7.69;89.98;100110.50;5033051;28;20124;-61
2023/03/25 06:24:30;;;;;;;12.35;2.75;;;;;;;7.57;90.87;100112.63;5022529;28;20075;-62
2023/03/25 06:26:55;;;;;;;10.35;3.05;;;;;;;7.58;90.64;100114.28;5031472;28;20029;-60
2023/03/25 06:29:21;;;;;;;8.05;2.50;;;;;;;7.66;89.37;100114.28;5033043;28;20499;-58
2023/03/25 06:31:46;;;;;;;12.18;2.70;;;;;;;7.61;89.79;100111.31;5027509;28;20067;-58
2023/03/25 06:34:11;;;;;;;15.45;3.30;;;;;;;7.68;88.99;100108.88;5025322;28;20026;-58
2023/03/25 06:36:36;;;;;;;14.35;2.90;;;;;;;7.71;89.15;100107.72;5032954;28;20491;-58
2023/03/25 06:39:04;;;;;;;13.75;3.08;;;;;;;7.63;89.64;100103.25;5026927;28;20029;-58
2023/03/25 06:41:29;;;;;;;11.55;2.95;;;;;;;7.66;89.09;100114.28;5019988;28;20029;-60
2023/03/25 06:43:54;;;;;;;10.75;2.85;;;;;;;7.80;88.28;100122.59;5023920;28;20050;-60
2023/03/25 06:46:20;;;;;;;11.25;2.92;;;;;;;7.76;88.79;100121.28;5026634;28;20033;-60
2023/03/25 06:48:45;;;;;;;10.75;2.97;;;;;;;7.86;88.09;100132.53;5034072;28;20049;-60
2023/03/25 06:51:10;;;;;;;15.95;3.47;;;;;;;7.90;87.95;100123.28;5022465;28;20048;-60
2023/03/25 06:53:36;;;;;;;12.52;3.33;;;;;;;7.92;87.89;100137.16;5020673;28;20110;-58
2023/03/25 06:56:01;;;;;;;13.38;3.38;;;;;;;7.89;88.23;100134.00;5017918;28;20460;-58
2023/03/25 06:58:33;;;;;;;14.85;3.10;;;;;;;7.98;87.17;100140.16;5017369;28;20037;-58
2023/03/25 07:01:02;;;;;;;15.03;2.90;;;;;;;7.96;87.92;100131.53;5021659;28;20120;-59
2023/03/25 07:03:28;;;;;;;13.68;3.10;;;;;;;8.02;87.72;100130.88;5012282;28;20385;-59
2023/03/25 07:05:53;;;;;;;12.40;3.20;;;;;;;8.11;86.48;100135.22;5021472;28;20037;-58
2023/03/25 07:08:19;;;;;;;16.73;3.33;;;;;;;8.03;88.67;100153.66;5017122;28;20094;-61
2023/03/25 07:10:44;;;;;;;18.58;3.40;;;;;;;8.04;88.20;100129.75;5020344;28;20033;-58
2023/03/25 07:13:10;;;;;;;16.08;3.28;;;;;;;8.04;88.13;100136.84;5018359;28;20082;-58
2023/03/25 07:15:35;;;;;;;15.40;3.33;;;;;;;7.92;90.04;100121.31;5015273;28;20042;-58
2023/03/25 07:18:01;;;;;;;10.30;2.60;;;;;;;8.03;88.29;100132.53;5021614;28;20120;-58
2023/03/25 07:20:26;;;;;;;16.20;3.30;;;;;;;8.17;87.90;100129.28;5020879;28;20503;-59
2023/03/25 07:22:54;;;;;;;16.10;3.10;;;;;;;8.14;88.84;100123.50;5018593;28;20061;-58
2023/03/25 07:25:19;;;;;;;13.50;3.05;;;;;;;8.17;87.97;100133.72;5019887;28;20096;-58
2023/03/25 07:27:45;;;;;;;14.95;3.50;;;;;;;8.06;90.25;100132.22;5019502;28;21959;-58
2023/03/25 07:30:10;;;;;;;17.60;3.30;;;;;;;8.08;89.61;100141.66;5017547;28;20474;-59
2023/03/25 07:32:35;;;;;;;17.13;3.85;;;;;;;8.01;90.67;100139.81;5020069;28;20037;-60
2023/03/25 07:35:01;;;;;;;15.55;2.90;;;;;;;8.04;90.64;100135.03;5024410;28;20029;-60
2023/03/25 07:37:26;;;;;;;20.13;3.50;;;;;;;8.14;89.42;100140.16;5018365;28;20030;-58
2023/03/25 07:39:51;;;;;;;16.60;3.05;;;;;;;8.01;90.72;100153.00;5019683;28;20064;-57
2023/03/25 07:42:17;;;;;;;18.75;3.40;;;;;;;7.93;92.11;100154.66;5023174;28;20481;-58
2023/03/25 07:44:42;;;;;;;15.23;3.10;;;;;;;7.94;91.94;100152.81;5016039;28;20044;-58
2023/03/25 07:47:07;;;;;;;22.50;3.63;;;;;;;7.86;92.47;100148.38;5029341;28;20105;-59
2023/03/25 07:49:33;;;;;;;15.88;3.15;;;;;;;7.89;92.59;100157.78;5025222;28;20065;-58
2023/03/25 07:51:59;;;;;;;14.45;3.05;;;;;;;7.84;92.69;100152.97;5014497;28;20132;-58
2023/03/25 07:54:24;;;;;;;18.95;3.53;;;;;;;7.96;92.05;100166.69;5016406;28;20111;-57
2023/03/25 07:56:51;;;;;;;21.98;3.83;;;;;;;7.94;92.44;100161.56;5020660;28;20029;-58
2023/03/25 07:59:17;;;;;;;19.30;3.30;;;;;;;7.91;92.64;100161.88;5017910;28;20117;-58
2023/03/25 08:01:42;;;;;;;14.40;3.70;;;;;;;7.95;92.28;100157.13;5020400;28;20572;-58
2023/03/25 08:04:08;;;;;;;17.55;3.47;;;;;;;8.05;92.42;100170.19;5018808;28;20122;-58
2023/03/25 08:06:33;;;;;;;22.02;3.70;;;;;;;8.17;91.48;100166.25;5018521;28;20465;-57
2023/03/25 08:08:58;;;;;;;16.23;3.00;;;;;;;8.32;89.86;100165.59;5018547;28;20052;-59
2023/03/25 08:11:24;;;;;;;15.30;3.17;;;;;;;8.36;90.68;100174.88;5018725;28;20030;-58
2023/03/25 08:13:49;;;;;;;18.10;3.45;;;;;;;8.39;91.49;100176.34;5018872;28;20026;-57
2023/03/25 08:16:15;;;;;;;14.23;3.15;;;;;;;8.50;89.98;100180.47;5019030;28;20037;-59
2023/03/25 08:18:43;;;;;;;13.57;3.40;;;;;;;8.50;90.05;100175.19;5017412;28;20030;-59
2023/03/25 08:21:10;;;;;;;15.38;3.10;;;;;;;8.44;90.80;100185.44;5019235;28;20716;-59
2023/03/25 08:23:36;;;;;;;17.92;3.40;;;;;;;8.56;91.14;100185.16;5021931;28;20105;-58
2023/03/25 08:26:04;;;;;;;11.35;2.80;;;;;;;8.65;89.85;100188.63;5025105;28;20104;-59
2023/03/25 08:28:30;;;;;;;15.90;3.55;;;;;;;8.39;92.16;100195.66;5017675;28;20112;-59
2023/03/25 08:30:55;;;;;;;19.10;3.97;;;;;;;8.35;93.04;100194.34;5016510;28;20112;-59
2023/03/25 08:33:25;;;;;;;18.98;3.90;;;;;;;8.26;94.66;100203.25;5013740;28;20491;-58
2023/03/25 08:35:51;;;;;;;15.13;3.58;;;;;;;8.28;95.22;100198.59;5019170;28;20034;-58
2023/03/25 08:38:17;;;;;;;19.33;3.67;;;;;;;8.19;95.84;100198.59;5018478;28;20103;-58
2023/03/25 08:40:43;;;;;;;18.15;3.22;;;;;;;8.19;96.38;100206.53;5018334;28;20037;-58
2023/03/25 08:43:09;;;;;;;19.10;3.97;;;;;;;8.04;97.79;100202.88;5017364;28;20042;-58
2023/03/25 08:45:35;;;;;;;17.55;3.65;;;;;;;8.02;98.64;100204.81;5023227;28;20116;-59
2023/03/25 08:48:02;;;;;;;20.38;3.92;;;;;;;8.02;98.69;100210.09;5029182;28;20449;-58
2023/03/25 08:50:27;;;;;;;23.65;4.55;;;;;;;8.02;98.92;100202.19;5020419;28;20032;-58
2023/03/25 08:52:56;;;;;;;17.83;3.97;;;;;;;8.10;98.92;100196.94;5021417;28;20037;-60
2023/03/25 08:55:22;;;;;;;18.77;3.70;;;;;;;8.17;98.70;100197.09;5022828;28;20030;-58
2023/03/25 08:57:48;;;;;;;21.45;4.15;;;;;;;8.26;98.79;100196.16;5020629;28;20505;-58
2023/03/25 09:00:13;;;;;;;17.95;3.83;;;;;;;8.30;97.71;100207.22;5023786;28;20136;-58
2023/03/25 09:02:40;;;;;;;18.55;3.67;;;;;;;8.28;99.29;100203.88;5020905;28;20458;-59
2023/03/25 09:05:07;;;;;;;21.00;4.25;;;;;;;8.35;98.03;100197.00;5022979;28;20038;-59
2023/03/25 09:07:32;;;;;;;23.80;3.97;;;;;;;8.46;98.64;100201.97;5018944;28;20105;-57
2023/03/25 09:09:58;;;;;;;22.45;4.30;;;;;;;8.61;97.88;100190.78;5022671;28;20130;-59
2023/03/25 09:12:23;;;;;;;21.55;4.43;;;;;;;8.64;96.64;100195.75;5014152;28;20945;-60
2023/03/25 09:14:49;;;;;;;19.35;4.68;;;;;;;8.77;97.35;100197.88;5017209;28;20060;-59
2023/03/25 09:17:14;;;;;;;20.15;4.47;;;;;;;8.94;95.58;100203.97;5020124;28;20033;-58
2023/03/25 09:19:39;;;;;;;21.02;4.47;;;;;;;8.96;96.02;100196.72;5016393;28;20031;-59
2023/03/25 09:22:05;;;;;;;21.52;4.45;;;;;;;9.05;94.87;100196.69;5013131;28;20033;-58
2023/03/25 09:24:32;;;;;;;19.00;4.43;;;;;;;9.06;95.01;100187.75;5019636;28;20155;-59
2023/03/25 09:26:59;;;;;;;16.10;3.70;;;;;;;9.24;93.55;100193.69;5016345;28;20096;-58
2023/03/25 09:29:24;;;;;;;22.63;4.50;;;;;;;9.27;94.35;100188.06;5022353;28;20021;-58
2023/03/25 09:31:50;;;;;;;19.25;4.07;;;;;;;9.51;91.34;100194.28;5024039;28;20088;-58
2023/03/25 09:34:15;;;;;;;19.00;4.40;;;;;;;9.47;92.60;100208.03;5020954;28;20038;-59
2023/03/25 09:36:41;;;;;;;20.83;4.50;;;;;;;9.62;91.82;100203.66;5021352;28;20049;-58
2023/03/25 09:39:07;;;;;;;23.15;4.18;;;;;;;9.64;92.61;100214.09;5019485;28;20060;-58
2023/03/25 09:42:00;;;;;;;18.20;4.20;;;;;;;9.75;91.01;100204.94;5023865;28;20034;-58
2023/03/25 09:44:35;;;;;;;21.00;4.10;;;;;;;9.70;87.78;100218.72;5015746;28;20576;-59
2023/03/25 09:47:02;;;;;;;18.17;4.38;;;;;;;9.74;89.08;100213.91;5019458;28;20033;-58
2023/03/25 09:49:41;;;;;;;14.80;3.60;;;;;;;9.79;87.77;100211.56;5019209;28;20057;-58
2023/03/25 09:52:15;;;;;;;20.15;4.32;;;;;;;9.77;88.08;100222.31;5018368;28;20720;-60
2023/03/25 09:54:48;;;;;;;14.48;3.92;;;;;;;9.75;87.49;100220.84;5019580;28;20069;-58
2023/03/25 09:57:21;;;;;;;19.70;4.20;;;;;;;9.89;86.07;100225.44;5019940;28;20029;-58
2023/03/25 09:59:49;;;;;;;22.65;4.30;;;;;;;9.85;86.62;100221.47;5021275;28;20082;-58
2023/03/25 10:02:20;;;;;;;15.93;4.00;;;;;;;9.82;87.81;100217.34;5018423;28;20046;-58
2023/03/25 10:05:27;;;;;;;18.17;4.75;;;;;;;10.00;86.89;100208.31;5016542;28;20052;-58
2023/03/25 10:08:15;;;;;;;19.50;4.18;;;;;;;10.07;87.55;100217.22;5019367;28;20041;-58
2023/03/25 10:10:54;;;;;;;19.77;4.85;;;;;;;10.03;88.26;100218.59;5018099;28;20026;-58
2023/03/25 10:13:45;;;;;;;17.38;4.15;;;;;;;10.12;86.76;100216.69;5018967;28;20124;-59
2023/03/25 10:16:16;;;;;;;22.73;4.38;;;;;;;10.30;85.65;100213.78;5015293;28;21094;-58
2023/03/25 10:19:10;;;;;;;18.13;4.47;;;;;;;10.54;83.41;100217.31;5016652;28;20042;-58
2023/03/25 10:21:53;;;;;;;18.60;4.40;;;;;;;10.42;83.78;100216.84;5019822;28;20083;-58
2023/03/25 10:24:27;;;;;;;24.45;4.82;;;;;;;10.43;85.40;100212.41;5016265;28;20030;-59
2023/03/25 10:26:59;;;;;;;23.55;5.07;;;;;;;10.56;82.65;100204.69;5027381;28;20033;-60
2023/03/25 10:29:32;;;;;;;22.02;4.63;;;;;;;10.46;82.54;100212.06;5021301;28;20103;-61
2023/03/25 10:32:05;;;;;;;14.82;3.75;;;;;;;10.52;82.11;100227.28;5032529;28;20048;-60
2023/03/25 10:34:38;;;;;;;18.05;4.60;;;;;;;10.40;81.33;100223.34;5020751;28;20029;-61
2023/03/25 10:37:09;;;;;;;20.70;4.55;;;;;;;10.27;80.38;100215.97;5028334;28;20481;-60
2023/03/25 10:39:38;;;;;;;21.48;4.45;;;;;;;10.21;81.49;100215.66;5033657;28;20075;-60
2023/03/25 10:42:33;;;;;;;17.85;3.92;;;;;;;10.48;79.82;100218.03;5034911;28;20108;-61
2023/03/25 10:44:59;;;;;;;20.20;4.40;;;;;;;10.26;80.46;100223.06;5024021;28;20338;-60
2023/03/25 10:47:29;;;;;;;15.55;3.50;;;;;;;10.46;79.65;100233.28;5029938;28;20026;-61
2023/03/25 10:49:58;;;;;;;17.15;4.00;;;;;;;10.47;76.95;100224.31;5030875;28;20052;-61
2023/03/25 10:52:23;;;;;;;19.80;4.78;;;;;;;10.50;76.43;100234.56;5027650;28;20022;-61
2023/03/25 10:54:53;;;;;;;16.45;3.80;;;;;;;10.70;76.68;100229.63;5032235;28;20032;-60
2023/03/25 10:57:24;;;;;;;15.13;3.60;;;;;;;10.87;75.06;100240.91;5029739;28;20029;-61
2023/03/25 11:00:18;;;;;;;15.50;3.55;;;;;;;10.98;72.69;100222.94;5025111;28;20026;-60
2023/03/25 11:02:43;;;;;;;;;;;;;;;11.27;71.02;100221.34;5033432;28;20358;-61
2023/03/25 11:05:13;;;;;;;18.73;3.72;;;;;;;11.07;72.37;100224.53;5032942;28;19909;-61
2023/03/25 11:07:42;;;;;;;17.52;3.50;;;;;;;11.11;70.04;100225.78;5027165;28;20665;-61
2023/03/25 11:10:17;;;;;;;18.70;3.83;;;;;;;11.19;68.63;100247.97;5019611;28;20111;-62
2023/03/25 11:12:46;;;;;;;13.70;3.35;;;;;;;11.14;68.52;100236.06;5022694;28;20034;-57
2023/03/25 11:15:19;;;;;;;14.10;3.20;;;;;;;11.15;67.87;100237.69;5033013;28;20030;-58
2023/03/25 11:17:46;;;;;;;9.00;2.17;;;;;;;11.29;66.59;100243.22;5032234;28;20041;-58
2023/03/25 11:20:24;;;;;;;13.88;2.83;;;;;;;11.38;67.34;100234.16;5032956;28;20044;-58
2023/03/25 11:22:53;;;;;;;11.35;2.75;;;;;;;11.30;66.69;100243.03;5032283;28;20519;-58
2023/03/25 11:25:24;;;;;;;13.38;2.40;;;;;;;11.43;63.98;100255.69;5029694;28;20441;-58
2023/03/25 11:27:56;;;;;;;12.32;2.70;;;;;;;11.46;63.76;100235.94;5030595;28;20017;-59
2023/03/25 11:30:24;;;;;;;10.25;2.47;;;;;;;11.49;63.88;100232.09;5038817;28;20094;-57
2023/03/25 11:32:59;;;;;;;15.82;2.63;;;;;;;11.44;64.21;100249.38;5039737;28;20041;-58
2023/03/25 11:35:28;;;;;;;14.45;2.40;;;;;;;11.46;63.51;100232.44;5031953;28;20038;-58
2023/03/25 11:37:59;;;;;;;14.32;2.60;;;;;;;11.43;64.02;100239.75;5034607;28;20573;-58